Alva, OK

10:21 AM CDT en Octubre 24, 2014 (GMT -0500)
Alva Regional | Change Station
CLOSE
Current Station
Aeropuerto
Location: Alva,
Altura: 1473 ft
Estaciones meteorológicas cercanas

Alt 1473 ft 36.77 °N, 98.67 °W | Updated 11 minutes ago

Despejado
Despejado
63 ° F
Sensación térmica 63 ° F
N
9
Viento Variable Viento desde Sur

Hoy
Alta -- | Baja -- ° F
--% Posibilidad de precipitaciones
Ayer
Alta -- | Baja -- ° F
Precip. -- pul
7:50 AM 6:46 PM
Luna nueva, 1% visible
Presión 30.09 pul
Visibilidad 9.0 Millas
Nubes Despejado
Punto de rocío 61 ° F
Humedad 94%
Precipitaciones 0.00 pul
Espesor de la nieve No disponible.
UV 2 de una escala de 12
Polen 3.60 de una escala de 12
Calidad del aire No disponible.
Flu Activity No Activity
METAR KAVK 241510Z AUTO 19008KT 9SM CLR 17/16 A3009 RMK AO2

More Conditions Fewer Conditions

Presión 30.09 pul
Visibilidad 9.0 Millas
Nubes Despejado
Punto de rocío 61 ° F
Humedad 94%
Precipitaciones 0.00 pul
Espesor de la nieve No disponible.
UV 2 de una escala de 12
Polen 3.60 de una escala de 12
Calidad del aire No disponible.
Flu Activity No Activity
METAR KAVK 241510Z AUTO 19008KT 9SM CLR 17/16 A3009 RMK AO2

More Conditions Fewer Conditions

10-Day Weather Forecast

Almanac

Astronomía

Oct. 24, 2014 Salida Puesta
Hora real 7:50 AM CDT 6:46 PM CDT
Crepúsculo civil 7:24 AM CDT 7:12 PM CDT
Crepúsculo náutico 6:53 AM CDT 7:43 PM CDT
Crepúsculo astronómico 6:23 AM CDT 8:13 PM CDT
Luna 8:30 AM CDT 7:28 PM CDT
Horas de luz 11h 48m
Horas de luz
10h 55m
Tomorrow will be 2m 10s shorter.
Luna nueva, 1% of the Moon is Illuminated
Hoy
Luna nueva
Oct 30
Cuarto creciente
Nov 6
Luna llena
Nov 14
Cuarto menguante
Nov 22
Nueva

Extremos de hoy

Máximos del estado Bajos del estado

Community

WunderPhotos

Upload Photos

1,764,588 ¡fotos cargadas!

WunderBlogs® & News

By Dr. Jeff Masters
Director of Meteorology, Weather Underground
By Kari Strenfel
Meteorologist, Weather Underground
By Christopher C. Burt
Weather Historian, Weather Underground
October 24, 2014
October 24, 2014
October 24, 2014

Nearby

Grosos de nieve

Estación Profundido Altura
No tenemos constancia de nieve nueva.

Actividad de terremotos

Ciudad Distance Mag. Tiempo y dato
Medford, Oklahoma 53 Millas 3.0 2:06 AM CDT
2014-10-23
Pawnee, Oklahoma 93 Millas 2.7 1:06 AM CDT
2014-10-23
Luther, Oklahoma 114 Millas 2.5 10:36 PM CDT
2014-10-22
Crescent, Oklahoma 72 Millas 2.7 9:58 PM CDT
2014-10-22
Magnitud mínima muestra es 2,5.

Temperaturas de aguas costeras

Lugar Temperatura
Sin partes meteorológicos de las estaciones

Estaciones meteorológicas cercanas